Time;durP1;ratioP1;P1;durP2;ratioP2;P2;SDS_P1;SDS_P2;PMS_P1;PMS_P2;Temp;Humidity;BMP_temperature;BMP_pressure;BME280_temperature;BME280_humidity;BME280_pressure;Samples;Min_cycle;Max_cycle;Signal;HPM_P1;HPM_P2
2023/04/19 00:02:12;;;;;;;11.00;2.00;;;;;;;7.28;76.57;102268.25;5104311;28;20479;-83
2023/04/19 00:04:40;;;;;;;7.13;2.33;;;;;;;7.25;73.21;102268.72;5097228;28;20540;-83
2023/04/19 00:07:07;;;;;;;8.80;2.30;;;;;;;7.32;75.63;102269.41;5097131;28;20535;-82
2023/04/19 00:09:34;;;;;;;6.60;2.27;;;;;;;7.24;72.38;102267.09;5097295;28;20870;-82
2023/04/19 00:12:01;;;;;;;7.40;2.40;;;;;;;7.30;73.61;102276.94;5097179;28;20473;-81
2023/04/19 00:14:27;;;;;;;6.57;1.73;;;;;;;7.31;73.12;102275.88;5097178;28;20448;-83
2023/04/19 00:16:54;;;;;;;5.27;1.87;;;;;;;7.38;73.16;102269.53;5096924;28;20465;-82
2023/04/19 00:19:21;;;;;;;8.40;1.57;;;;;;;7.43;72.37;102266.94;5096906;28;20484;-81
2023/04/19 00:21:50;;;;;;;7.57;1.87;;;;;;;7.37;68.89;102270.59;5096776;28;20876;-83
2023/04/19 00:24:18;;;;;;;7.50;2.10;;;;;;;7.33;67.13;102260.25;5096834;28;20947;-83
2023/04/19 00:26:44;;;;;;;6.60;1.97;;;;;;;7.37;68.92;102265.19;5097335;28;20447;-82
2023/04/19 00:29:11;;;;;;;7.10;2.00;;;;;;;7.35;69.88;102260.06;5096817;28;20468;-83
2023/04/19 00:31:38;;;;;;;6.10;1.53;;;;;;;7.26;68.39;102259.59;5096808;28;20448;-81
2023/04/19 00:34:06;;;;;;;8.23;2.70;;;;;;;7.20;69.16;102268.59;5096107;28;20456;-81
2023/04/19 00:36:32;;;;;;;5.20;1.20;;;;;;;7.22;69.19;102258.44;5096423;28;20515;-82
2023/04/19 00:39:00;;;;;;;14.00;1.90;;;;;;;7.25;70.29;102257.94;5096643;28;20588;-83
2023/04/19 00:41:27;;;;;;;5.40;1.30;;;;;;;7.14;67.96;102264.19;5097059;28;20532;-85
2023/04/19 00:43:54;;;;;;;6.40;1.73;;;;;;;7.17;67.63;102260.16;5096857;28;20508;-82
2023/04/19 00:46:21;;;;;;;7.37;1.70;;;;;;;7.21;68.31;102261.34;5096855;28;20539;-82
2023/04/19 00:48:48;;;;;;;7.60;1.80;;;;;;;7.17;68.62;102266.41;5096764;28;20914;-83
2023/04/19 00:51:15;;;;;;;5.93;1.47;;;;;;;7.16;69.09;102262.06;5097551;28;20540;-82
2023/04/19 00:53:43;;;;;;;6.50;1.90;;;;;;;7.22;68.18;102263.00;5097387;28;20441;-83
2023/04/19 00:56:13;;;;;;;8.30;1.60;;;;;;;7.27;69.90;102265.81;5097170;28;20474;-82
2023/04/19 00:58:40;;;;;;;7.80;1.90;;;;;;;7.20;65.82;102259.72;5097471;28;20970;-83
2023/04/19 01:01:06;;;;;;;5.10;1.40;;;;;;;7.13;66.70;102265.25;5097487;28;20429;-82
2023/04/19 01:03:34;;;;;;;5.33;1.30;;;;;;;7.25;67.16;102263.31;5098487;28;20882;-82
2023/04/19 01:06:00;;;;;;;5.80;1.67;;;;;;;7.16;64.90;102253.16;5099278;28;20433;-81
2023/04/19 01:08:27;;;;;;;6.47;1.97;;;;;;;7.20;67.95;102257.84;5101241;28;20503;-81
2023/04/19 01:10:54;;;;;;;7.87;1.50;;;;;;;7.08;65.68;102257.03;5101191;28;20456;-81
2023/04/19 01:13:22;;;;;;;6.17;1.80;;;;;;;7.09;67.34;102261.38;5099036;28;20508;-81
2023/04/19 01:15:48;;;;;;;6.00;1.37;;;;;;;7.06;68.33;102259.16;5097763;28;20514;-81
2023/04/19 01:18:15;;;;;;;7.87;1.73;;;;;;;7.05;68.53;102257.50;5099276;28;20455;-81
2023/04/19 01:20:42;;;;;;;6.00;1.43;;;;;;;7.03;68.02;102259.59;5099770;28;20478;-81
2023/04/19 01:23:11;;;;;;;9.70;1.57;;;;;;;6.91;68.25;102259.63;5099392;28;20486;-81
2023/04/19 01:25:38;;;;;;;6.70;1.73;;;;;;;6.87;68.98;102254.94;5096572;28;20440;-81
2023/04/19 01:28:04;;;;;;;6.90;2.03;;;;;;;6.87;70.11;102257.66;5095602;28;20506;-81
2023/04/19 01:30:31;;;;;;;8.87;2.20;;;;;;;6.83;71.04;102249.22;5095526;28;20452;-81
2023/04/19 01:32:58;;;;;;;5.50;1.50;;;;;;;6.78;69.80;102247.22;5095083;28;20444;-82
2023/04/19 01:35:24;;;;;;;7.80;2.10;;;;;;;6.66;69.61;102251.78;5096435;28;20440;-82
2023/04/19 01:37:54;;;;;;;8.27;2.47;;;;;;;6.66;70.35;102259.84;5095804;28;20455;-82
2023/04/19 01:40:23;;;;;;;6.20;1.90;;;;;;;6.73;71.48;102252.50;5096165;28;20571;-81
2023/04/19 01:42:50;;;;;;;7.00;2.07;;;;;;;6.52;68.67;102247.69;5096463;28;20476;-82
2023/04/19 01:45:17;;;;;;;6.60;1.93;;;;;;;6.40;69.73;102247.66;5096399;28;20482;-81
2023/04/19 01:47:43;;;;;;;6.83;2.00;;;;;;;6.23;70.42;102238.59;5095878;28;20499;-83
2023/04/19 01:50:10;;;;;;;6.00;1.90;;;;;;;6.25;69.45;102245.41;5096720;28;20482;-82
2023/04/19 01:52:37;;;;;;;5.97;1.80;;;;;;;6.01;70.08;102241.81;5097035;28;20535;-82
2023/04/19 01:55:04;;;;;;;6.87;2.03;;;;;;;6.01;71.06;102238.31;5097198;28;20468;-82
2023/04/19 01:57:32;;;;;;;5.90;1.60;;;;;;;5.96;71.69;102235.50;5098003;28;20793;-82
2023/04/19 01:59:59;;;;;;;5.67;1.87;;;;;;;5.92;71.61;102237.00;5097804;28;20489;-82
2023/04/19 02:02:26;;;;;;;5.37;1.60;;;;;;;6.01;72.75;102235.63;5099525;28;20436;-83
2023/04/19 02:04:53;;;;;;;6.57;1.53;;;;;;;6.06;73.10;102233.91;5099982;28;20447;-81
2023/04/19 02:07:19;;;;;;;6.93;1.67;;;;;;;6.01;73.18;102235.63;5100491;28;20476;-83
2023/04/19 02:09:46;;;;;;;9.07;2.57;;;;;;;5.92;74.82;102226.25;5099595;28;20461;-82
2023/04/19 02:12:13;;;;;;;6.17;1.60;;;;;;;5.88;73.83;102233.91;5100324;28;20448;-82
2023/04/19 02:14:41;;;;;;;13.33;1.83;;;;;;;5.95;74.99;102231.19;5099461;28;20528;-81
2023/04/19 02:17:07;;;;;;;5.93;1.67;;;;;;;5.89;74.80;102226.66;5100928;28;20486;-82
2023/04/19 02:19:35;;;;;;;5.30;1.50;;;;;;;5.92;75.80;102223.56;5100242;28;20727;-82
2023/04/19 02:22:01;;;;;;;6.63;1.90;;;;;;;5.98;75.09;102223.47;5100021;28;20452;-83
2023/04/19 02:24:28;;;;;;;6.80;1.53;;;;;;;5.91;74.61;102220.03;5102232;28;20455;-83
2023/04/19 02:26:55;;;;;;;6.93;1.60;;;;;;;5.80;73.52;102218.94;5099510;28;20474;-83
2023/04/19 02:29:25;;;;;;;6.53;1.80;;;;;;;5.78;75.37;102221.03;5101218;28;20528;-83
2023/04/19 02:31:53;;;;;;;5.70;1.60;;;;;;;5.80;76.28;102218.94;5099664;28;21002;-84
2023/04/19 02:34:20;;;;;;;5.30;1.50;;;;;;;5.77;76.46;102214.03;5098356;28;20429;-82
2023/04/19 02:36:47;;;;;;;5.93;1.77;;;;;;;5.77;76.08;102214.03;5101576;28;20449;-82
2023/04/19 02:39:13;;;;;;;5.27;1.40;;;;;;;5.87;76.52;102212.66;5103039;28;20567;-84
2023/04/19 02:41:41;;;;;;;6.80;1.40;;;;;;;5.87;77.61;102209.97;5106764;28;20436;-82
2023/04/19 02:44:08;;;;;;;7.07;1.70;;;;;;;5.87;77.82;102208.09;5105337;28;20943;-82
2023/04/19 02:46:34;;;;;;;6.23;1.50;;;;;;;5.79;78.17;102205.72;5106614;28;20435;-82
2023/04/19 02:49:03;;;;;;;6.20;1.43;;;;;;;5.71;77.56;102193.44;5104498;28;20525;-81
2023/04/19 02:51:30;;;;;;;6.07;1.70;;;;;;;5.67;76.48;102203.00;5102656;28;20448;-83
2023/04/19 02:53:57;;;;;;;5.50;1.50;;;;;;;5.67;78.09;102188.75;5104209;28;20437;-82
2023/04/19 02:56:23;;;;;;;5.13;1.27;;;;;;;5.63;79.81;102193.75;5104578;28;20443;-82
2023/04/19 02:58:53;;;;;;;5.50;1.67;;;;;;;5.66;77.74;102187.09;5104185;28;20845;-82
2023/04/19 03:01:19;;;;;;;5.60;1.80;;;;;;;5.64;78.90;102186.50;5104527;28;20521;-83
2023/04/19 03:03:46;;;;;;;6.60;1.60;;;;;;;5.54;78.10;102189.75;5102280;28;20475;-84
2023/04/19 03:06:15;;;;;;;7.47;1.43;;;;;;;5.47;78.00;102187.13;5103003;28;20468;-82
2023/04/19 03:08:42;;;;;;;5.60;1.50;;;;;;;5.32;78.39;102181.34;5103969;28;20894;-83
2023/04/19 03:11:09;;;;;;;8.83;2.00;;;;;;;5.31;79.06;102183.22;5104988;28;20818;-82
2023/04/19 03:13:35;;;;;;;8.43;1.40;;;;;;;5.30;79.84;102183.44;5104143;28;20486;-83
2023/04/19 03:16:02;;;;;;;6.20;1.60;;;;;;;5.28;79.75;102166.72;5103734;28;20459;-83
2023/04/19 03:18:29;;;;;;;6.27;1.80;;;;;;;5.28;80.01;102174.78;5103980;28;20456;-82
2023/04/19 03:20:56;;;;;;;5.90;1.20;;;;;;;5.23;80.84;102167.41;5105248;28;20497;-84
2023/04/19 03:23:25;;;;;;;8.47;1.80;;;;;;;5.16;81.04;102158.59;5103749;28;20970;-82
2023/04/19 03:25:52;;;;;;;5.30;1.20;;;;;;;5.16;81.29;102161.28;5105671;28;20433;-83
2023/04/19 03:28:19;;;;;;;6.33;1.67;;;;;;;5.11;81.66;102155.78;5107634;28;20517;-83
2023/04/19 03:30:50;;;;;;;7.20;2.30;;;;;;;5.02;82.18;102157.94;5105935;28;20513;-81
2023/04/19 03:33:17;;;;;;;4.97;1.20;;;;;;;5.12;82.02;102152.03;5105973;28;20523;-82
2023/04/19 03:35:46;;;;;;;6.77;1.80;;;;;;;5.11;82.93;102155.78;5107198;28;20540;-83
2023/04/19 03:38:13;;;;;;;7.03;1.60;;;;;;;5.09;82.06;102157.03;5108398;28;20445;-82
2023/04/19 03:40:41;;;;;;;7.13;1.57;;;;;;;5.04;82.30;102150.47;5109154;28;20488;-83
2023/04/19 03:43:08;;;;;;;6.53;2.20;;;;;;;4.97;82.20;102148.94;5110880;28;20467;-84
2023/04/19 03:45:37;;;;;;;5.50;1.93;;;;;;;4.86;82.88;102155.84;5109871;28;20444;-82
2023/04/19 03:48:05;;;;;;;6.60;1.97;;;;;;;4.85;84.08;102148.03;5110988;28;20449;-83
2023/04/19 03:50:32;;;;;;;11.33;2.10;;;;;;;4.85;85.54;102140.78;5110258;28;20439;-84
2023/04/19 03:52:59;;;;;;;4.93;1.40;;;;;;;4.86;85.65;102145.13;5110192;28;20947;-84
2023/04/19 03:55:26;;;;;;;8.07;2.17;;;;;;;4.84;86.30;102146.41;5110156;28;20440;-82
2023/04/19 03:57:54;;;;;;;7.27;1.57;;;;;;;4.82;86.70;102146.59;5109989;28;20452;-83
2023/04/19 04:00:21;;;;;;;8.57;2.10;;;;;;;4.69;86.17;102147.59;5109940;28;20488;-83
2023/04/19 04:02:51;;;;;;;6.50;2.03;;;;;;;4.54;86.74;102142.56;5111741;28;20480;-81
2023/04/19 04:05:18;;;;;;;4.77;1.13;;;;;;;4.58;87.71;102140.28;5115907;28;20962;-82
2023/04/19 04:07:44;;;;;;;6.90;1.80;;;;;;;4.70;87.50;102143.88;5115144;28;20459;-83
2023/04/19 04:10:11;;;;;;;5.60;1.70;;;;;;;4.64;89.50;102142.06;5114261;28;20513;-83
2023/04/19 04:12:41;;;;;;;6.43;1.63;;;;;;;4.68;89.05;102139.75;5110603;28;20453;-81
2023/04/19 04:15:13;;;;;;;6.93;1.50;;;;;;;4.71;89.05;102140.13;5108811;28;20506;-82
2023/04/19 04:17:40;;;;;;;4.73;1.33;;;;;;;4.74;88.73;102145.06;5109124;28;20447;-81
2023/04/19 04:20:12;;;;;;;6.70;1.83;;;;;;;4.76;88.31;102134.09;5109500;28;20541;-81
2023/04/19 04:22:42;;;;;;;7.33;1.93;;;;;;;4.69;88.31;102136.88;5110311;28;20492;-82
2023/04/19 04:25:09;;;;;;;5.00;1.20;;;;;;;4.70;88.06;102138.50;5110228;28;20425;-81
2023/04/19 04:27:38;;;;;;;6.70;1.80;;;;;;;4.63;89.64;102136.91;5110110;28;20869;-85
2023/04/19 04:30:05;;;;;;;5.87;1.43;;;;;;;4.65;90.41;102140.19;5108362;28;20833;-81
2023/04/19 04:32:37;;;;;;;5.67;1.50;;;;;;;4.61;89.79;102137.16;5108489;28;20444;-82
2023/04/19 04:35:04;;;;;;;7.33;1.30;;;;;;;4.51;90.04;102134.97;5108046;28;20439;-83
2023/04/19 04:37:32;;;;;;;5.47;1.60;;;;;;;4.36;90.34;102131.81;5108315;28;20455;-81
2023/04/19 04:39:59;;;;;;;8.73;1.27;;;;;;;4.30;91.95;102122.81;5105436;28;20534;-82
2023/04/19 04:42:27;;;;;;;5.33;1.20;;;;;;;4.26;91.93;102124.28;5107003;28;20503;-80
2023/04/19 04:45:06;;;;;;;5.40;1.40;;;;;;;4.37;92.31;102119.22;5105462;28;20440;-81
2023/04/19 04:47:35;;;;;;;12.50;1.90;;;;;;;4.31;92.34;102123.63;5105908;28;20819;-81
2023/04/19 04:50:07;;;;;;;6.23;1.87;;;;;;;4.41;92.81;102117.75;5105874;28;20464;-80
2023/04/19 04:52:34;;;;;;;5.13;1.50;;;;;;;4.40;92.26;102116.13;5105980;28;20456;-81
2023/04/19 04:55:01;;;;;;;6.50;1.53;;;;;;;4.39;93.79;102117.97;5104922;28;20437;-81
2023/04/19 04:57:30;;;;;;;6.50;1.70;;;;;;;4.52;92.92;102109.78;5105778;28;20483;-80
2023/04/19 04:59:57;;;;;;;6.43;1.93;;;;;;;4.68;92.66;102113.72;5106082;28;20499;-81
2023/04/19 05:02:29;;;;;;;5.80;1.80;;;;;;;4.65;92.24;102114.19;5106913;28;20455;-81
2023/04/19 05:05:05;;;;;;;12.43;2.03;;;;;;;4.72;93.29;102116.78;5103377;28;20436;-81
2023/04/19 05:07:41;;;;;;;4.80;1.40;;;;;;;4.80;93.24;102109.25;5104946;28;20429;-80
2023/04/19 05:10:09;;;;;;;5.70;1.60;;;;;;;4.84;92.92;102123.06;5105522;28;20493;-80
2023/04/19 05:12:37;;;;;;;10.50;1.50;;;;;;;4.75;93.54;102119.84;5105641;28;20435;-81
2023/04/19 05:15:05;;;;;;;7.50;1.60;;;;;;;4.77;93.47;102107.00;5104568;28;20444;-80
2023/04/19 05:17:32;;;;;;;10.70;2.00;;;;;;;4.90;94.10;102106.03;5102613;28;20507;-79
2023/04/19 05:20:06;;;;;;;8.60;2.30;;;;;;;4.99;93.27;102106.56;5105336;28;20476;-82
2023/04/19 05:22:32;;;;;;;6.30;1.70;;;;;;;5.13;93.02;102102.63;5104843;28;20511;-80
2023/04/19 05:24:59;;;;;;;5.97;1.40;;;;;;;5.17;92.42;102103.84;5103915;28;20444;-82
2023/04/19 05:27:29;;;;;;;8.03;1.77;;;;;;;5.28;92.39;102103.06;5102893;28;20963;-81
2023/04/19 05:29:56;;;;;;;6.93;1.80;;;;;;;5.31;91.24;102099.09;5104387;28;20456;-82
2023/04/19 05:32:22;;;;;;;6.73;1.60;;;;;;;5.41;92.36;102098.56;5105676;28;20420;-82
2023/04/19 05:34:49;;;;;;;8.13;1.80;;;;;;;5.40;90.83;102104.97;5104603;28;20523;-80
2023/04/19 05:37:20;;;;;;;7.80;2.33;;;;;;;5.50;90.75;102099.88;5103792;28;20444;-82
2023/04/19 05:39:49;;;;;;;11.07;1.60;;;;;;;5.51;89.76;102086.19;5103268;28;20445;-81
2023/04/19 05:42:16;;;;;;;9.50;2.40;;;;;;;5.62;90.06;102097.19;5104159;28;20502;-81
2023/04/19 05:44:43;;;;;;;5.90;1.27;;;;;;;5.76;90.79;102091.41;5100868;28;20440;-81
2023/04/19 05:47:12;;;;;;;6.77;2.40;;;;;;;5.76;88.12;102083.34;5104454;28;20464;-84
2023/04/19 05:49:39;;;;;;;5.30;1.23;;;;;;;5.76;88.77;102077.97;5104418;28;20526;-82
2023/04/19 05:52:08;;;;;;;12.10;2.00;;;;;;;5.79;88.40;102079.34;5103963;28;20448;-82
2023/04/19 05:54:38;;;;;;;8.23;1.97;;;;;;;5.86;88.15;102081.94;5107937;28;20451;-81
2023/04/19 05:57:55;;;;;;;7.67;1.43;;;;;;;5.97;87.66;102075.78;5103916;28;20494;-82
2023/04/19 06:00:27;;;;;;;15.33;2.07;;;;;;;6.02;86.70;102083.94;5081359;28;20527;-82
2023/04/19 06:02:54;;;;;;;6.70;1.70;;;;;;;5.96;86.53;102076.81;5104630;28;20433;-81
2023/04/19 06:05:33;;;;;;;5.90;1.47;;;;;;;6.09;86.01;102084.66;5106352;28;20445;-81
2023/04/19 06:08:26;;;;;;;;;;;;;;;;;;;;;
2023/04/19 06:11:00;;;;;;;5.03;1.30;;;;;;;6.26;85.33;102071.34;5106039;28;20444;-81
2023/04/19 06:13:32;;;;;;;7.93;1.63;;;;;;;6.42;85.13;102081.38;5101726;28;20987;-81
2023/04/19 06:15:59;;;;;;;7.57;1.60;;;;;;;6.43;84.71;102074.94;5102509;28;20429;-81
2023/04/19 06:18:27;;;;;;;4.87;1.20;;;;;;;6.46;84.23;102077.19;5102116;28;20902;-81
2023/04/19 06:20:54;;;;;;;5.13;1.00;;;;;;;6.48;83.08;102068.84;5101807;28;20488;-82
2023/04/19 06:23:21;;;;;;;6.73;1.47;;;;;;;6.60;83.05;102080.44;5101504;28;20468;-82
2023/04/19 06:25:48;;;;;;;4.77;1.13;;;;;;;6.61;82.54;102084.75;5100896;28;20439;-82
2023/04/19 06:28:23;;;;;;;10.23;1.47;;;;;;;6.72;82.94;102086.56;5100258;28;20453;-82
2023/04/19 06:31:00;;;;;;;4.93;1.00;;;;;;;6.79;82.56;102081.06;5097273;28;21000;-82
2023/04/19 06:33:30;;;;;;;8.50;1.70;;;;;;;6.87;81.88;102083.41;5096358;28;20462;-85
2023/04/19 06:35:58;;;;;;;6.40;1.60;;;;;;;6.88;80.44;102078.81;5096453;28;20437;-86
2023/04/19 06:38:37;;;;;;;4.83;1.10;;;;;;;6.98;80.64;102081.72;5097009;28;20460;-83
2023/04/19 06:41:04;;;;;;;11.00;1.53;;;;;;;6.96;79.79;102081.16;5096254;28;20514;-81
2023/04/19 06:43:34;;;;;;;4.70;1.20;;;;;;;7.02;79.29;102074.78;5097842;28;20468;-81
2023/04/19 06:46:02;;;;;;;5.10;1.43;;;;;;;7.14;79.34;102082.84;5099452;28;20462;-82
2023/04/19 06:48:28;;;;;;;4.77;0.90;;;;;;;7.25;78.81;102071.97;5106134;28;20501;-82
2023/04/19 06:50:58;;;;;;;5.23;1.20;;;;;;;7.37;79.62;102076.50;5102863;28;20480;-82
2023/04/19 06:53:30;;;;;;;6.83;1.57;;;;;;;7.47;78.19;102065.88;5098792;28;20793;-81
2023/04/19 06:56:10;;;;;;;4.70;0.90;;;;;;;7.56;76.67;102061.72;5095161;28;20923;-81
2023/04/19 06:59:32;;;;;;;;;;;;;;;;;;;;;
2023/04/19 07:31:03;;;;;;;6.27;1.60;;;;;;;8.64;69.31;102013.66;4882586;29;20514;-81
2023/04/19 07:36:34;;;;;;;5.23;1.20;;;;;;;8.82;65.71;102012.50;4855780;29;20450;-78
2023/04/19 07:39:01;;;;;;;8.10;1.90;;;;;;;8.95;65.16;102019.38;4897163;29;20495;-78
2023/04/19 07:41:31;;;;;;;5.53;1.20;;;;;;;8.97;63.56;102019.94;4919593;29;20488;-78
2023/04/19 07:43:57;;;;;;;6.00;1.70;;;;;;;9.10;65.82;102006.00;4920374;29;20474;-80
2023/04/19 07:46:30;;;;;;;6.07;1.40;;;;;;;9.15;64.69;102016.88;4919090;29;20483;-80
2023/04/19 07:48:56;;;;;;;6.43;1.23;;;;;;;9.27;61.39;102008.63;4919047;29;20472;-80
2023/04/19 07:51:24;;;;;;;8.20;1.80;;;;;;;9.31;62.36;102015.94;4918794;29;21031;-78
2023/04/19 07:53:50;;;;;;;7.30;1.30;;;;;;;9.40;59.55;102007.38;4918457;29;20556;-79
2023/04/19 07:56:18;;;;;;;7.47;1.17;;;;;;;9.48;62.30;102002.31;4919127;29;20464;-80
2023/04/19 07:59:03;;;;;;;5.27;1.20;;;;;;;9.51;58.82;102011.78;4918585;29;20472;-79
2023/04/19 08:01:53;;;;;;;5.80;1.50;;;;;;;9.64;56.76;102008.63;4943309;29;20493;-79
2023/04/19 08:04:21;;;;;;;4.53;1.00;;;;;;;9.71;59.03;102003.00;4957582;29;20494;-79
2023/04/19 08:06:48;;;;;;;9.43;1.40;;;;;;;9.78;57.70;102004.41;5072184;28;20445;-79
2023/04/19 08:09:14;;;;;;;6.83;1.47;;;;;;;9.83;56.33;101990.13;5084571;28;20502;-78
2023/04/19 08:11:42;;;;;;;7.97;1.50;;;;;;;9.85;55.15;101996.06;5084148;28;20448;-78
2023/04/19 08:14:08;;;;;;;8.73;1.63;;;;;;;9.83;55.08;101990.13;5082601;28;20533;-80
2023/04/19 08:16:35;;;;;;;6.93;1.00;;;;;;;9.89;56.05;101999.06;5077805;28;20437;-78
2023/04/19 08:19:03;;;;;;;6.10;1.47;;;;;;;9.94;54.91;101993.69;5076462;28;20496;-80
2023/04/19 08:21:32;;;;;;;5.27;1.13;;;;;;;9.94;55.03;101985.56;5077124;28;20508;-80
2023/04/19 08:23:59;;;;;;;5.50;1.70;;;;;;;10.08;56.02;101981.28;5078213;28;20492;-81
2023/04/19 08:26:43;;;;;;;;;;;;;;;;;;;;;
2023/04/19 08:29:12;;;;;;;7.50;1.90;;;;;;;10.25;53.36;101981.16;5077296;28;20565;-82
2023/04/19 08:31:38;;;;;;;5.93;1.60;;;;;;;10.35;53.78;101979.28;5077295;28;20459;-80
2023/04/19 08:34:09;;;;;;;6.33;1.70;;;;;;;10.41;53.62;101972.00;5078177;28;20434;-81
2023/04/19 08:36:37;;;;;;;6.10;1.60;;;;;;;10.35;53.10;101964.94;5077466;28;20860;-81
2023/04/19 08:39:08;;;;;;;4.70;1.20;;;;;;;10.41;53.84;101976.63;5077053;28;20497;-79
2023/04/19 08:41:35;;;;;;;6.80;1.97;;;;;;;10.54;52.38;101957.16;5077053;28;20556;-80
2023/04/19 08:44:04;;;;;;;7.93;1.50;;;;;;;10.67;53.73;101972.06;5077024;28;20473;-81
2023/04/19 08:46:32;;;;;;;6.60;1.43;;;;;;;10.76;52.92;101968.59;5076892;28;20449;-80
2023/04/19 08:49:11;;;;;;;5.23;1.33;;;;;;;10.78;51.46;101962.88;5076471;28;20547;-80
2023/04/19 08:51:39;;;;;;;11.33;1.60;;;;;;;10.84;52.11;101964.50;5076643;28;20446;-81
2023/04/19 08:54:07;;;;;;;6.63;1.83;;;;;;;11.07;53.46;101965.94;5076386;28;20470;-81
2023/04/19 08:56:34;;;;;;;5.37;1.27;;;;;;;11.16;53.49;101941.78;5076338;28;21017;-80
2023/04/19 08:59:00;;;;;;;4.50;1.20;;;;;;;11.19;52.52;101961.03;5075932;28;20481;-80
2023/04/19 09:01:27;;;;;;;5.20;1.30;;;;;;;11.28;52.66;101961.28;5076099;28;20574;-80
2023/04/19 09:03:54;;;;;;;5.33;1.30;;;;;;;11.40;52.65;101955.59;5076094;28;20436;-80
2023/04/19 09:06:26;;;;;;;7.13;2.00;;;;;;;11.59;51.45;101956.66;5075906;28;20480;-81
2023/04/19 09:08:57;;;;;;;5.07;1.43;;;;;;;11.88;51.69;101950.69;5076696;28;20473;-81
2023/04/19 09:11:36;;;;;;;6.90;2.13;;;;;;;11.72;49.45;101947.94;5076573;28;20472;-81
2023/04/19 09:14:08;;;;;;;5.90;1.53;;;;;;;11.77;50.39;101945.22;5076219;28;20523;-80
2023/04/19 09:16:36;;;;;;;6.50;2.10;;;;;;;11.88;50.37;101942.53;5076132;28;20477;-80
2023/04/19 09:19:02;;;;;;;5.00;1.27;;;;;;;11.77;49.12;101923.50;5076127;28;20461;-81
2023/04/19 09:21:32;;;;;;;8.07;1.83;;;;;;;11.84;49.94;101931.41;5076041;28;20484;-81
2023/04/19 09:24:00;;;;;;;4.97;1.53;;;;;;;11.97;49.00;101930.81;5075800;28;20438;-81
2023/04/19 09:26:28;;;;;;;5.70;1.57;;;;;;;11.96;47.88;101928.38;5076408;28;20469;-80
2023/04/19 09:28:59;;;;;;;6.27;1.50;;;;;;;12.00;48.66;101915.88;5077334;28;20461;-81
2023/04/19 09:31:27;;;;;;;6.07;1.70;;;;;;;12.08;49.54;101907.94;5075261;28;20506;-81
2023/04/19 09:33:55;;;;;;;5.67;1.60;;;;;;;11.94;48.92;101900.69;5074631;28;20517;-80
2023/04/19 09:36:29;;;;;;;6.53;1.67;;;;;;;11.91;49.53;101893.91;5075060;28;20562;-79
2023/04/19 09:38:58;;;;;;;7.20;1.63;;;;;;;12.00;48.97;101902.31;5099008;22;20503;-65
2023/04/19 09:41:24;;;;;;;5.70;1.70;;;;;;;11.97;48.36;101886.56;5093987;28;20482;-66
2023/04/19 09:43:52;;;;;;;11.30;1.90;;;;;;;11.89;47.97;101901.50;5093692;28;21042;-66
2023/04/19 09:46:32;;;;;;;5.60;1.70;;;;;;;11.77;47.71;101904.50;5093978;28;20447;-66
2023/04/19 09:49:19;;;;;;;6.97;1.80;;;;;;;11.74;48.43;101894.22;5094534;28;20432;-66
2023/04/19 09:51:47;;;;;;;8.70;2.00;;;;;;;11.82;47.47;101879.22;5093592;28;20926;-66
2023/04/19 09:54:16;;;;;;;4.97;1.10;;;;;;;11.89;48.91;101884.41;5093534;28;20465;-66
2023/04/19 09:56:43;;;;;;;6.57;2.00;;;;;;;12.03;47.77;101880.00;5093995;28;20848;-66
2023/04/19 09:59:10;;;;;;;5.57;1.37;;;;;;;12.14;46.80;101889.75;5093486;28;20527;-67
2023/04/19 10:01:39;;;;;;;6.37;1.70;;;;;;;12.20;47.46;101874.22;5093664;28;20484;-67
2023/04/19 10:04:07;;;;;;;11.30;2.33;;;;;;;12.19;47.23;101876.13;5093658;28;20503;-66
2023/04/19 10:06:35;;;;;;;4.80;1.10;;;;;;;12.18;47.91;101874.50;5093351;28;21026;-66
2023/04/19 10:09:03;;;;;;;6.17;1.57;;;;;;;12.17;46.86;101864.72;5093649;28;20463;-67
2023/04/19 10:11:37;;;;;;;5.70;1.80;;;;;;;12.09;47.82;101858.00;5093314;28;20476;-66
2023/04/19 10:14:06;;;;;;;6.30;1.90;;;;;;;12.10;46.31;101865.03;5093585;28;20467;-67
2023/04/19 10:16:33;;;;;;;6.67;1.40;;;;;;;12.21;46.30;101854.91;5093152;28;20957;-66
2023/04/19 10:19:00;;;;;;;6.10;2.00;;;;;;;12.24;46.14;101865.22;5093309;28;20531;-66
2023/04/19 10:21:29;;;;;;;5.77;1.60;;;;;;;12.27;46.06;101853.81;5093392;28;20563;-66
2023/04/19 10:23:57;;;;;;;7.27;1.87;;;;;;;12.43;45.97;101853.69;5093499;28;20501;-67
2023/04/19 10:26:24;;;;;;;5.93;1.80;;;;;;;12.52;45.70;101849.28;5093712;28;20476;-67
2023/04/19 10:28:55;;;;;;;5.27;1.33;;;;;;;12.73;47.36;101856.19;5093323;28;20444;-67
2023/04/19 10:31:22;;;;;;;8.37;1.70;;;;;;;12.92;46.28;101841.91;5093029;28;20421;-67
2023/04/19 10:33:50;;;;;;;6.57;2.07;;;;;;;12.86;44.47;101854.75;5093226;28;20448;-67
2023/04/19 10:36:17;;;;;;;5.90;1.77;;;;;;;12.94;46.74;101839.72;5093208;28;20791;-66
2023/04/19 10:38:46;;;;;;;5.23;1.20;;;;;;;13.12;46.71;101855.31;5093067;28;20484;-66
2023/04/19 10:41:14;;;;;;;7.00;1.80;;;;;;;13.36;47.66;101837.13;5093040;28;20440;-66
2023/04/19 10:43:43;;;;;;;9.97;1.87;;;;;;;13.62;47.68;101854.00;5093201;28;20515;-68
2023/04/19 10:46:15;;;;;;;5.03;1.30;;;;;;;13.87;46.05;101852.06;5093239;28;20486;-66
2023/04/19 10:48:52;;;;;;;6.00;1.87;;;;;;;13.58;44.76;101846.69;5093301;28;20424;-67
2023/04/19 10:51:21;;;;;;;6.50;1.73;;;;;;;13.56;43.78;101843.47;5092957;28;20911;-68
2023/04/19 10:53:53;;;;;;;9.63;1.73;;;;;;;13.30;43.98;101840.22;5093092;28;20464;-66
2023/04/19 10:56:22;;;;;;;4.97;1.33;;;;;;;13.35;44.72;101840.97;5093163;28;20452;-66
2023/04/19 10:59:20;;;;;;;5.63;1.47;;;;;;;13.49;45.87;101827.47;5092840;28;20935;-66
2023/04/19 11:01:50;;;;;;;4.93;1.03;;;;;;;13.70;46.94;101836.22;5092771;28;20463;-66
2023/04/19 11:04:19;;;;;;;5.43;1.57;;;;;;;13.55;44.29;101841.84;5092946;28;20820;-66
2023/04/19 11:07:01;;;;;;;6.90;1.90;;;;;;;13.29;45.30;101838.59;5092677;28;20931;-66
2023/04/19 11:09:30;;;;;;;6.73;1.67;;;;;;;13.44;45.67;101824.00;5092937;28;20448;-66
2023/04/19 11:11:59;;;;;;;5.67;1.60;;;;;;;13.56;44.73;101832.56;5092924;28;20451;-66
2023/04/19 11:14:27;;;;;;;5.33;1.20;;;;;;;13.54;44.90;101823.88;5092507;28;20465;-66
2023/04/19 11:16:55;;;;;;;6.10;1.87;;;;;;;13.63;45.25;101830.28;5092913;28;20487;-66
2023/04/19 11:19:22;;;;;;;5.10;1.50;;;;;;;13.92;44.08;101823.97;5092861;28;20448;-66
2023/04/19 11:21:49;;;;;;;5.30;1.43;;;;;;;14.72;43.73;101818.41;5092780;28;20525;-66
2023/04/19 11:24:17;;;;;;;6.07;1.80;;;;;;;15.26;43.69;101814.16;5092739;28;20547;-67
2023/04/19 11:26:45;;;;;;;9.40;1.80;;;;;;;16.15;42.92;101804.69;5092825;28;20451;-66
2023/04/19 11:29:12;;;;;;;6.30;1.70;;;;;;;16.61;39.44;101822.75;5092739;28;20440;-66
2023/04/19 11:31:39;;;;;;;8.37;2.23;;;;;;;16.51;39.27;101812.03;5092372;28;20994;-67
2023/04/19 11:34:07;;;;;;;7.00;1.90;;;;;;;17.15;41.13;101809.88;5092583;28;20521;-66
2023/04/19 11:36:35;;;;;;;11.10;2.10;;;;;;;17.34;37.48;101815.09;5092679;28;20447;-66
2023/04/19 11:39:04;;;;;;;8.47;1.83;;;;;;;17.61;39.08;101805.84;5092284;28;20458;-67
2023/04/19 11:41:37;;;;;;;6.30;1.30;;;;;;;18.03;35.70;101817.25;5092171;28;20444;-67
2023/04/19 11:44:04;;;;;;;6.03;1.43;;;;;;;17.97;36.74;101813.03;5092280;28;20539;-67
2023/04/19 11:46:31;;;;;;;5.53;1.70;;;;;;;17.74;38.46;101820.56;5093753;28;20446;-67
2023/04/19 11:48:57;;;;;;;6.90;1.97;;;;;;;18.22;37.09;101814.19;5096227;28;20480;-66
2023/04/19 11:51:26;;;;;;;8.83;1.90;;;;;;;17.43;35.92;101798.69;5096173;28;20444;-67
2023/04/19 11:53:53;;;;;;;6.77;1.70;;;;;;;16.44;37.90;101798.81;5096193;28;20871;-67
2023/04/19 11:56:19;;;;;;;5.50;1.77;;;;;;;15.58;38.97;101793.31;5095763;28;20441;-67
2023/04/19 11:58:47;;;;;;;6.13;1.53;;;;;;;14.89;39.72;101799.56;5096026;28;20443;-67
2023/04/19 12:01:16;;;;;;;7.57;1.90;;;;;;;14.58;42.29;101790.28;5095677;28;20974;-67
2023/04/19 12:03:45;;;;;;;6.90;1.90;;;;;;;14.35;43.89;101781.91;5095479;28;20476;-67
2023/04/19 12:06:14;;;;;;;7.93;1.93;;;;;;;14.05;42.71;101787.81;5095923;28;20433;-67
2023/04/19 12:08:45;;;;;;;9.40;1.70;;;;;;;13.98;44.58;101776.47;5095850;28;20494;-66
2023/04/19 12:11:13;;;;;;;8.10;2.23;;;;;;;13.98;44.10;101777.28;5095835;28;20425;-67
2023/04/19 12:13:40;;;;;;;5.27;1.60;;;;;;;13.92;42.77;101766.75;5095447;28;20475;-67
2023/04/19 12:16:07;;;;;;;6.57;2.07;;;;;;;14.28;43.70;101767.84;5095594;28;20475;-67